sensor_id;sensor_type;location;lat;lon;timestamp;temperature;humidity
66708;DHT22;53622;0.000;0.000;2022-10-16T00:00:15;22.40;75.30
66708;DHT22;53622;0.000;0.000;2022-10-16T00:02:44;22.40;75.30
66708;DHT22;53622;0.000;0.000;2022-10-16T00:05:18;22.40;75.20
66708;DHT22;53622;0.000;0.000;2022-10-16T00:07:47;22.30;75.10
66708;DHT22;53622;0.000;0.000;2022-10-16T00:10:17;22.30;75.10
66708;DHT22;53622;0.000;0.000;2022-10-16T00:12:47;22.30;75.10
66708;DHT22;53622;0.000;0.000;2022-10-16T00:15:16;22.30;75.00
66708;DHT22;53622;0.000;0.000;2022-10-16T00:17:45;22.30;75.10
66708;DHT22;53622;0.000;0.000;2022-10-16T00:20:15;22.30;75.10
66708;DHT22;53622;0.000;0.000;2022-10-16T00:22:44;22.30;75.00
66708;DHT22;53622;0.000;0.000;2022-10-16T00:25:13;22.30;74.90
66708;DHT22;53622;0.000;0.000;2022-10-16T00:27:42;22.30;75.00
66708;DHT22;53622;0.000;0.000;2022-10-16T00:30:13;22.30;74.90
66708;DHT22;53622;0.000;0.000;2022-10-16T00:32:42;22.30;74.90
66708;DHT22;53622;0.000;0.000;2022-10-16T00:35:11;22.30;74.90
66708;DHT22;53622;0.000;0.000;2022-10-16T00:37:40;22.30;74.80
66708;DHT22;53622;0.000;0.000;2022-10-16T00:40:10;22.30;74.80
66708;DHT22;53622;0.000;0.000;2022-10-16T00:42:40;22.30;74.80
66708;DHT22;53622;0.000;0.000;2022-10-16T00:45:10;22.30;74.70
66708;DHT22;53622;0.000;0.000;2022-10-16T00:47:42;22.30;74.70
66708;DHT22;53622;0.000;0.000;2022-10-16T00:50:18;22.20;74.60
66708;DHT22;53622;0.000;0.000;2022-10-16T00:52:50;22.20;74.50
66708;DHT22;53622;0.000;0.000;2022-10-16T00:55:20;22.20;74.50
66708;DHT22;53622;0.000;0.000;2022-10-16T00:57:50;22.20;74.50
66708;DHT22;53622;0.000;0.000;2022-10-16T01:00:23;22.20;74.40
66708;DHT22;53622;0.000;0.000;2022-10-16T01:02:55;22.20;74.50
66708;DHT22;53622;0.000;0.000;2022-10-16T01:05:34;22.20;74.50
66708;DHT22;53622;0.000;0.000;2022-10-16T01:08:12;22.20;74.50
66708;DHT22;53622;0.000;0.000;2022-10-16T01:10:47;22.20;74.40
66708;DHT22;53622;0.000;0.000;2022-10-16T01:13:22;22.20;74.40
66708;DHT22;53622;0.000;0.000;2022-10-16T01:15:56;22.20;74.40
66708;DHT22;53622;0.000;0.000;2022-10-16T01:18:33;22.20;74.40
66708;DHT22;53622;0.000;0.000;2022-10-16T01:21:05;22.20;74.30
66708;DHT22;53622;0.000;0.000;2022-10-16T01:23:45;22.20;74.30
66708;DHT22;53622;0.000;0.000;2022-10-16T01:26:30;22.20;74.30
66708;DHT22;53622;0.000;0.000;2022-10-16T01:29:05;22.10;74.20
66708;DHT22;53622;0.000;0.000;2022-10-16T01:31:38;22.10;74.20
66708;DHT22;53622;0.000;0.000;2022-10-16T01:34:14;22.10;74.20
66708;DHT22;53622;0.000;0.000;2022-10-16T01:36:49;22.10;74.10
66708;DHT22;53622;0.000;0.000;2022-10-16T01:39:22;22.10;74.10
66708;DHT22;53622;0.000;0.000;2022-10-16T01:41:57;22.10;74.10
66708;DHT22;53622;0.000;0.000;2022-10-16T01:44:32;22.10;74.10
66708;DHT22;53622;0.000;0.000;2022-10-16T01:47:02;22.20;74.10
66708;DHT22;53622;0.000;0.000;2022-10-16T01:49:34;22.10;74.00
66708;DHT22;53622;0.000;0.000;2022-10-16T01:52:08;22.10;74.00
66708;DHT22;53622;0.000;0.000;2022-10-16T01:54:40;22.10;74.20
66708;DHT22;53622;0.000;0.000;2022-10-16T01:57:12;22.10;74.00
66708;DHT22;53622;0.000;0.000;2022-10-16T01:59:45;22.10;74.00
66708;DHT22;53622;0.000;0.000;2022-10-16T02:02:17;22.10;73.90
66708;DHT22;53622;0.000;0.000;2022-10-16T02:04:51;22.10;74.00
66708;DHT22;53622;0.000;0.000;2022-10-16T02:07:22;22.10;73.90
66708;DHT22;53622;0.000;0.000;2022-10-16T02:09:51;22.10;73.90
66708;DHT22;53622;0.000;0.000;2022-10-16T02:12:25;22.10;73.80
66708;DHT22;53622;0.000;0.000;2022-10-16T02:14:57;22.10;73.70
66708;DHT22;53622;0.000;0.000;2022-10-16T02:17:27;22.10;73.70
66708;DHT22;53622;0.000;0.000;2022-10-16T02:19:57;22.10;73.80
66708;DHT22;53622;0.000;0.000;2022-10-16T02:22:28;22.10;73.70
66708;DHT22;53622;0.000;0.000;2022-10-16T02:25:02;22.10;73.70
66708;DHT22;53622;0.000;0.000;2022-10-16T02:27:37;22.10;73.70
66708;DHT22;53622;0.000;0.000;2022-10-16T02:30:19;22.10;73.70
66708;DHT22;53622;0.000;0.000;2022-10-16T02:32:49;22.10;73.60
66708;DHT22;53622;0.000;0.000;2022-10-16T02:35:21;22.00;73.70
66708;DHT22;53622;0.000;0.000;2022-10-16T02:37:52;22.10;73.70
66708;DHT22;53622;0.000;0.000;2022-10-16T02:40:22;22.10;73.70
66708;DHT22;53622;0.000;0.000;2022-10-16T02:42:53;22.00;73.70
66708;DHT22;53622;0.000;0.000;2022-10-16T02:45:25;22.00;73.60
66708;DHT22;53622;0.000;0.000;2022-10-16T02:47:54;22.10;73.60
66708;DHT22;53622;0.000;0.000;2022-10-16T02:50:23;22.00;73.60
66708;DHT22;53622;0.000;0.000;2022-10-16T02:52:53;22.00;73.60
66708;DHT22;53622;0.000;0.000;2022-10-16T02:55:22;22.00;73.50
66708;DHT22;53622;0.000;0.000;2022-10-16T02:57:51;22.00;73.60
66708;DHT22;53622;0.000;0.000;2022-10-16T03:00:21;22.00;73.50
66708;DHT22;53622;0.000;0.000;2022-10-16T03:02:51;22.00;73.50
66708;DHT22;53622;0.000;0.000;2022-10-16T03:05:21;22.00;73.60
66708;DHT22;53622;0.000;0.000;2022-10-16T03:07:50;22.00;73.50
66708;DHT22;53622;0.000;0.000;2022-10-16T03:10:20;22.10;74.50
66708;DHT22;53622;0.000;0.000;2022-10-16T03:12:49;22.10;73.80
66708;DHT22;53622;0.000;0.000;2022-10-16T03:15:18;22.30;73.30
66708;DHT22;53622;0.000;0.000;2022-10-16T03:17:47;22.40;73.10
66708;DHT22;53622;0.000;0.000;2022-10-16T03:20:18;22.50;72.80
66708;DHT22;53622;0.000;0.000;2022-10-16T03:22:47;22.60;72.50
66708;DHT22;53622;0.000;0.000;2022-10-16T03:25:16;22.60;72.20
66708;DHT22;53622;0.000;0.000;2022-10-16T03:27:46;22.60;72.00
66708;DHT22;53622;0.000;0.000;2022-10-16T03:30:15;22.70;71.90
66708;DHT22;53622;0.000;0.000;2022-10-16T03:32:44;22.70;71.70
66708;DHT22;53622;0.000;0.000;2022-10-16T03:35:13;22.80;71.70
66708;DHT22;53622;0.000;0.000;2022-10-16T03:37:44;22.80;71.40
66708;DHT22;53622;0.000;0.000;2022-10-16T03:40:13;22.80;71.40
66708;DHT22;53622;0.000;0.000;2022-10-16T03:42:43;22.80;71.20
66708;DHT22;53622;0.000;0.000;2022-10-16T03:45:12;22.80;71.20
66708;DHT22;53622;0.000;0.000;2022-10-16T03:47:41;22.90;71.20
66708;DHT22;53622;0.000;0.000;2022-10-16T03:50:10;22.90;71.00
66708;DHT22;53622;0.000;0.000;2022-10-16T03:52:40;22.90;71.00
66708;DHT22;53622;0.000;0.000;2022-10-16T03:55:10;23.00;71.00
66708;DHT22;53622;0.000;0.000;2022-10-16T03:57:39;23.00;71.00
66708;DHT22;53622;0.000;0.000;2022-10-16T04:00:10;23.00;70.80
66708;DHT22;53622;0.000;0.000;2022-10-16T04:02:39;23.00;70.70
66708;DHT22;53622;0.000;0.000;2022-10-16T04:05:09;23.00;70.70
66708;DHT22;53622;0.000;0.000;2022-10-16T04:07:38;22.90;70.70
66708;DHT22;53622;0.000;0.000;2022-10-16T04:10:08;22.90;70.70
66708;DHT22;53622;0.000;0.000;2022-10-16T04:12:38;22.80;71.00
66708;DHT22;53622;0.000;0.000;2022-10-16T04:15:08;22.80;71.10
66708;DHT22;53622;0.000;0.000;2022-10-16T04:17:37;22.80;71.20
66708;DHT22;53622;0.000;0.000;2022-10-16T04:20:07;22.70;71.30
66708;DHT22;53622;0.000;0.000;2022-10-16T04:22:36;22.70;71.30
66708;DHT22;53622;0.000;0.000;2022-10-16T04:25:07;22.70;71.40
66708;DHT22;53622;0.000;0.000;2022-10-16T04:27:38;22.70;71.40
66708;DHT22;53622;0.000;0.000;2022-10-16T04:30:13;22.70;71.40
66708;DHT22;53622;0.000;0.000;2022-10-16T04:32:42;22.70;71.40
66708;DHT22;53622;0.000;0.000;2022-10-16T04:35:11;22.60;71.30
66708;DHT22;53622;0.000;0.000;2022-10-16T04:37:40;22.60;72.10
66708;DHT22;53622;0.000;0.000;2022-10-16T04:40:10;22.60;71.30
66708;DHT22;53622;0.000;0.000;2022-10-16T04:42:40;22.60;71.30
66708;DHT22;53622;0.000;0.000;2022-10-16T04:45:10;22.60;71.20
66708;DHT22;53622;0.000;0.000;2022-10-16T04:47:43;22.60;72.00
66708;DHT22;53622;0.000;0.000;2022-10-16T04:50:12;22.50;71.10
66708;DHT22;53622;0.000;0.000;2022-10-16T04:53:01;22.50;71.10
66708;DHT22;53622;0.000;0.000;2022-10-16T04:55:30;22.50;71.10
66708;DHT22;53622;0.000;0.000;2022-10-16T04:58:00;22.50;71.00
66708;DHT22;53622;0.000;0.000;2022-10-16T05:00:29;22.50;71.00
66708;DHT22;53622;0.000;0.000;2022-10-16T05:02:59;22.50;71.00
66708;DHT22;53622;0.000;0.000;2022-10-16T05:05:28;22.50;70.90
66708;DHT22;53622;0.000;0.000;2022-10-16T05:07:57;22.50;71.00
66708;DHT22;53622;0.000;0.000;2022-10-16T05:10:26;22.50;70.90
66708;DHT22;53622;0.000;0.000;2022-10-16T05:12:56;22.40;71.00
66708;DHT22;53622;0.000;0.000;2022-10-16T05:15:26;22.40;70.90
66708;DHT22;53622;0.000;0.000;2022-10-16T05:17:56;22.40;71.00
66708;DHT22;53622;0.000;0.000;2022-10-16T05:20:25;22.40;71.00
66708;DHT22;53622;0.000;0.000;2022-10-16T05:22:54;22.40;71.00
66708;DHT22;53622;0.000;0.000;2022-10-16T05:25:24;22.40;71.00
66708;DHT22;53622;0.000;0.000;2022-10-16T05:27:53;22.40;71.10
66708;DHT22;53622;0.000;0.000;2022-10-16T05:30:22;22.40;71.10
66708;DHT22;53622;0.000;0.000;2022-10-16T05:32:53;22.30;71.10
66708;DHT22;53622;0.000;0.000;2022-10-16T05:35:22;22.30;71.10
66708;DHT22;53622;0.000;0.000;2022-10-16T05:37:52;22.30;71.10
66708;DHT22;53622;0.000;0.000;2022-10-16T05:40:21;22.30;71.20
66708;DHT22;53622;0.000;0.000;2022-10-16T05:42:55;22.30;71.20
66708;DHT22;53622;0.000;0.000;2022-10-16T05:45:24;22.30;71.20
66708;DHT22;53622;0.000;0.000;2022-10-16T05:47:55;22.30;71.40
66708;DHT22;53622;0.000;0.000;2022-10-16T05:50:24;22.30;71.40
66708;DHT22;53622;0.000;0.000;2022-10-16T05:52:53;22.20;71.20
66708;DHT22;53622;0.000;0.000;2022-10-16T05:55:22;22.20;71.30
66708;DHT22;53622;0.000;0.000;2022-10-16T05:57:54;22.20;71.30
66708;DHT22;53622;0.000;0.000;2022-10-16T06:00:23;22.20;71.20
66708;DHT22;53622;0.000;0.000;2022-10-16T06:02:54;22.20;71.30
66708;DHT22;53622;0.000;0.000;2022-10-16T06:05:23;22.20;71.30
66708;DHT22;53622;0.000;0.000;2022-10-16T06:07:52;22.20;71.30
66708;DHT22;53622;0.000;0.000;2022-10-16T06:10:21;22.20;71.20
66708;DHT22;53622;0.000;0.000;2022-10-16T06:12:50;22.20;71.30
66708;DHT22;53622;0.000;0.000;2022-10-16T06:15:20;22.20;71.30
66708;DHT22;53622;0.000;0.000;2022-10-16T06:17:49;22.20;71.30
66708;DHT22;53622;0.000;0.000;2022-10-16T06:20:19;22.10;71.30
66708;DHT22;53622;0.000;0.000;2022-10-16T06:22:48;22.10;71.20
66708;DHT22;53622;0.000;0.000;2022-10-16T06:25:17;22.10;71.20
66708;DHT22;53622;0.000;0.000;2022-10-16T06:27:47;22.10;71.30
66708;DHT22;53622;0.000;0.000;2022-10-16T06:30:16;22.10;71.30
66708;DHT22;53622;0.000;0.000;2022-10-16T06:32:45;22.10;71.40
66708;DHT22;53622;0.000;0.000;2022-10-16T06:35:14;22.10;71.40
66708;DHT22;53622;0.000;0.000;2022-10-16T06:37:45;22.10;71.30
66708;DHT22;53622;0.000;0.000;2022-10-16T06:40:14;22.10;71.30
66708;DHT22;53622;0.000;0.000;2022-10-16T06:42:43;22.10;71.30
66708;DHT22;53622;0.000;0.000;2022-10-16T06:45:13;22.20;71.20
66708;DHT22;53622;0.000;0.000;2022-10-16T06:47:42;22.20;71.40
66708;DHT22;53622;0.000;0.000;2022-10-16T06:50:11;22.10;71.30
66708;DHT22;53622;0.000;0.000;2022-10-16T06:52:41;22.10;71.30
66708;DHT22;53622;0.000;0.000;2022-10-16T06:55:11;22.10;71.50
66708;DHT22;53622;0.000;0.000;2022-10-16T06:57:41;22.10;71.60
66708;DHT22;53622;0.000;0.000;2022-10-16T07:00:11;22.10;71.70
66708;DHT22;53622;0.000;0.000;2022-10-16T07:02:40;22.10;71.90
66708;DHT22;53622;0.000;0.000;2022-10-16T07:05:09;22.10;72.00
66708;DHT22;53622;0.000;0.000;2022-10-16T07:07:39;22.10;72.10
66708;DHT22;53622;0.000;0.000;2022-10-16T07:10:08;22.10;72.10
66708;DHT22;53622;0.000;0.000;2022-10-16T07:12:39;22.10;72.20
66708;DHT22;53622;0.000;0.000;2022-10-16T07:15:09;22.10;72.30
66708;DHT22;53622;0.000;0.000;2022-10-16T07:17:40;22.10;72.20
66708;DHT22;53622;0.000;0.000;2022-10-16T07:20:10;22.10;73.00
66708;DHT22;53622;0.000;0.000;2022-10-16T07:22:39;22.10;72.30
66708;DHT22;53622;0.000;0.000;2022-10-16T07:25:09;22.10;72.40
66708;DHT22;53622;0.000;0.000;2022-10-16T07:27:40;22.10;71.20
66708;DHT22;53622;0.000;0.000;2022-10-16T07:30:09;22.10;70.40
66708;DHT22;53622;0.000;0.000;2022-10-16T07:32:39;22.10;70.40
66708;DHT22;53622;0.000;0.000;2022-10-16T07:35:08;22.20;70.10
66708;DHT22;53622;0.000;0.000;2022-10-16T07:37:37;22.20;69.90
66708;DHT22;53622;0.000;0.000;2022-10-16T07:40:08;22.20;69.90
66708;DHT22;53622;0.000;0.000;2022-10-16T07:42:37;22.20;70.60
66708;DHT22;53622;0.000;0.000;2022-10-16T07:45:09;22.20;70.40
66708;DHT22;53622;0.000;0.000;2022-10-16T07:47:40;22.20;70.50
66708;DHT22;53622;0.000;0.000;2022-10-16T07:50:10;22.20;70.60
66708;DHT22;53622;0.000;0.000;2022-10-16T07:52:40;22.20;70.70
66708;DHT22;53622;0.000;0.000;2022-10-16T07:55:09;22.20;70.70
66708;DHT22;53622;0.000;0.000;2022-10-16T07:57:38;22.20;70.90
66708;DHT22;53622;0.000;0.000;2022-10-16T08:00:11;22.20;71.70
66708;DHT22;53622;0.000;0.000;2022-10-16T08:02:41;22.20;71.00
66708;DHT22;53622;0.000;0.000;2022-10-16T08:05:11;22.20;71.10
66708;DHT22;53622;0.000;0.000;2022-10-16T08:07:40;22.20;71.30
66708;DHT22;53622;0.000;0.000;2022-10-16T08:10:14;22.20;71.30
66708;DHT22;53622;0.000;0.000;2022-10-16T08:12:44;22.20;71.40
66708;DHT22;53622;0.000;0.000;2022-10-16T08:15:15;22.20;71.50
66708;DHT22;53622;0.000;0.000;2022-10-16T08:17:53;22.30;71.90
66708;DHT22;53622;0.000;0.000;2022-10-16T08:20:23;22.30;72.20
66708;DHT22;53622;0.000;0.000;2022-10-16T08:22:52;22.20;72.30
66708;DHT22;53622;0.000;0.000;2022-10-16T08:25:23;22.20;72.40
66708;DHT22;53622;0.000;0.000;2022-10-16T08:27:52;22.30;72.80
66708;DHT22;53622;0.000;0.000;2022-10-16T08:30:24;22.20;72.70
66708;DHT22;53622;0.000;0.000;2022-10-16T08:32:54;22.30;72.60
66708;DHT22;53622;0.000;0.000;2022-10-16T08:35:23;22.30;72.70
66708;DHT22;53622;0.000;0.000;2022-10-16T08:37:53;22.30;73.00
66708;DHT22;53622;0.000;0.000;2022-10-16T08:40:24;22.30;72.90
66708;DHT22;53622;0.000;0.000;2022-10-16T08:43:14;22.30;72.70
66708;DHT22;53622;0.000;0.000;2022-10-16T08:46:01;22.30;72.70
66708;DHT22;53622;0.000;0.000;2022-10-16T08:48:40;22.30;72.80
66708;DHT22;53622;0.000;0.000;2022-10-16T08:51:19;22.40;72.90
66708;DHT22;53622;0.000;0.000;2022-10-16T08:53:53;22.40;73.20
66708;DHT22;53622;0.000;0.000;2022-10-16T08:56:24;22.40;73.30
66708;DHT22;53622;0.000;0.000;2022-10-16T08:58:54;22.40;73.70
66708;DHT22;53622;0.000;0.000;2022-10-16T09:01:38;22.30;74.40
66708;DHT22;53622;0.000;0.000;2022-10-16T09:07:27;22.40;75.80
66708;DHT22;53622;0.000;0.000;2022-10-16T09:10:15;22.40;76.40
66708;DHT22;53622;0.000;0.000;2022-10-16T09:12:54;22.40;76.90
66708;DHT22;53622;0.000;0.000;2022-10-16T09:15:31;22.40;77.90
66708;DHT22;53622;0.000;0.000;2022-10-16T09:18:09;22.40;78.50
66708;DHT22;53622;0.000;0.000;2022-10-16T09:20:49;22.50;79.10
66708;DHT22;53622;0.000;0.000;2022-10-16T09:23:21;22.50;79.60
66708;DHT22;53622;0.000;0.000;2022-10-16T09:25:51;22.50;80.20
66708;DHT22;53622;0.000;0.000;2022-10-16T09:28:22;22.50;80.80
66708;DHT22;53622;0.000;0.000;2022-10-16T09:30:52;22.60;81.50
66708;DHT22;53622;0.000;0.000;2022-10-16T09:33:27;22.60;81.30
66708;DHT22;53622;0.000;0.000;2022-10-16T09:35:59;22.60;81.80
66708;DHT22;53622;0.000;0.000;2022-10-16T09:38:30;22.60;82.30
66708;DHT22;53622;0.000;0.000;2022-10-16T09:41:02;22.60;82.90
66708;DHT22;53622;0.000;0.000;2022-10-16T09:43:35;22.60;83.30
66708;DHT22;53622;0.000;0.000;2022-10-16T09:46:19;22.70;84.70
66708;DHT22;53622;0.000;0.000;2022-10-16T09:48:54;22.70;84.20
66708;DHT22;53622;0.000;0.000;2022-10-16T09:51:27;22.70;84.60
66708;DHT22;53622;0.000;0.000;2022-10-16T09:53:59;22.70;85.10
66708;DHT22;53622;0.000;0.000;2022-10-16T09:56:30;22.70;85.00
66708;DHT22;53622;0.000;0.000;2022-10-16T09:59:08;22.70;85.50
66708;DHT22;53622;0.000;0.000;2022-10-16T10:01:39;22.70;86.30
66708;DHT22;53622;0.000;0.000;2022-10-16T10:04:11;22.70;86.70
66708;DHT22;53622;0.000;0.000;2022-10-16T10:06:43;22.80;87.40
66708;DHT22;53622;0.000;0.000;2022-10-16T10:09:19;22.80;87.50
66708;DHT22;53622;0.000;0.000;2022-10-16T10:11:54;22.80;88.10
66708;DHT22;53622;0.000;0.000;2022-10-16T10:14:26;22.80;87.50
66708;DHT22;53622;0.000;0.000;2022-10-16T10:17:11;22.80;88.10
66708;DHT22;53622;0.000;0.000;2022-10-16T10:19:46;22.80;86.80
66708;DHT22;53622;0.000;0.000;2022-10-16T10:22:19;22.80;86.40
66708;DHT22;53622;0.000;0.000;2022-10-16T10:28:03;22.80;86.10
66708;DHT22;53622;0.000;0.000;2022-10-16T10:30:43;22.80;86.00
66708;DHT22;53622;0.000;0.000;2022-10-16T10:33:20;22.80;86.40
66708;DHT22;53622;0.000;0.000;2022-10-16T10:35:59;22.80;86.70
66708;DHT22;53622;0.000;0.000;2022-10-16T10:38:39;22.80;86.70
66708;DHT22;53622;0.000;0.000;2022-10-16T10:44:17;22.80;87.30
66708;DHT22;53622;0.000;0.000;2022-10-16T10:46:51;22.80;86.60
66708;DHT22;53622;0.000;0.000;2022-10-16T10:49:44;22.80;86.60
66708;DHT22;53622;0.000;0.000;2022-10-16T10:52:38;22.80;86.50
66708;DHT22;53622;0.000;0.000;2022-10-16T10:55:16;22.80;86.40
66708;DHT22;53622;0.000;0.000;2022-10-16T10:58:01;22.90;86.50
66708;DHT22;53622;0.000;0.000;2022-10-16T11:00:41;22.90;86.30
66708;DHT22;53622;0.000;0.000;2022-10-16T11:03:21;22.90;86.10
66708;DHT22;53622;0.000;0.000;2022-10-16T11:05:56;22.80;86.30
66708;DHT22;53622;0.000;0.000;2022-10-16T11:08:33;22.80;86.40
66708;DHT22;53622;0.000;0.000;2022-10-16T11:11:07;22.90;86.40
66708;DHT22;53622;0.000;0.000;2022-10-16T11:13:44;22.90;86.50
66708;DHT22;53622;0.000;0.000;2022-10-16T11:16:19;22.90;86.70
66708;DHT22;53622;0.000;0.000;2022-10-16T11:18:56;22.90;86.80
66708;DHT22;53622;0.000;0.000;2022-10-16T11:21:30;22.90;87.00
66708;DHT22;53622;0.000;0.000;2022-10-16T11:24:11;22.90;87.20
66708;DHT22;53622;0.000;0.000;2022-10-16T11:26:44;22.90;87.10
66708;DHT22;53622;0.000;0.000;2022-10-16T11:29:19;23.00;87.90
66708;DHT22;53622;0.000;0.000;2022-10-16T11:31:54;23.00;88.20
66708;DHT22;53622;0.000;0.000;2022-10-16T11:34:28;22.90;87.90
66708;DHT22;53622;0.000;0.000;2022-10-16T11:37:10;23.00;87.70
66708;DHT22;53622;0.000;0.000;2022-10-16T11:39:43;23.00;85.80
66708;DHT22;53622;0.000;0.000;2022-10-16T11:42:20;23.00;84.90
66708;DHT22;53622;0.000;0.000;2022-10-16T11:44:55;23.00;83.90
66708;DHT22;53622;0.000;0.000;2022-10-16T11:47:33;23.00;83.00
66708;DHT22;53622;0.000;0.000;2022-10-16T11:50:26;23.00;82.40
66708;DHT22;53622;0.000;0.000;2022-10-16T11:53:02;23.00;81.90
66708;DHT22;53622;0.000;0.000;2022-10-16T11:55:36;23.00;81.10
66708;DHT22;53622;0.000;0.000;2022-10-16T11:58:20;23.00;80.70
66708;DHT22;53622;0.000;0.000;2022-10-16T12:00:58;23.00;79.90
66708;DHT22;53622;0.000;0.000;2022-10-16T12:03:35;23.00;79.60
66708;DHT22;53622;0.000;0.000;2022-10-16T12:06:19;23.00;79.50
66708;DHT22;53622;0.000;0.000;2022-10-16T12:08:51;23.00;79.40
66708;DHT22;53622;0.000;0.000;2022-10-16T12:11:32;23.00;79.40
66708;DHT22;53622;0.000;0.000;2022-10-16T12:14:34;23.00;79.70
66708;DHT22;53622;0.000;0.000;2022-10-16T12:17:26;23.00;77.60
66708;DHT22;53622;0.000;0.000;2022-10-16T12:20:12;23.00;74.60
66708;DHT22;53622;0.000;0.000;2022-10-16T12:22:49;23.00;72.90
66708;DHT22;53622;0.000;0.000;2022-10-16T12:25:25;23.00;73.80
66708;DHT22;53622;0.000;0.000;2022-10-16T12:28:03;23.00;74.20
66708;DHT22;53622;0.000;0.000;2022-10-16T12:30:35;23.00;74.70
66708;DHT22;53622;0.000;0.000;2022-10-16T12:33:15;23.10;74.20
66708;DHT22;53622;0.000;0.000;2022-10-16T12:35:49;23.10;71.90
66708;DHT22;53622;0.000;0.000;2022-10-16T12:38:20;23.10;71.80
66708;DHT22;53622;0.000;0.000;2022-10-16T12:40:58;23.20;71.60
66708;DHT22;53622;0.000;0.000;2022-10-16T12:43:39;23.10;71.70
66708;DHT22;53622;0.000;0.000;2022-10-16T12:46:38;23.20;70.50
66708;DHT22;53622;0.000;0.000;2022-10-16T12:49:21;23.10;70.60
66708;DHT22;53622;0.000;0.000;2022-10-16T12:51:52;23.10;69.60
66708;DHT22;53622;0.000;0.000;2022-10-16T12:54:28;23.10;68.30
66708;DHT22;53622;0.000;0.000;2022-10-16T12:57:15;23.20;69.90
66708;DHT22;53622;0.000;0.000;2022-10-16T12:59:56;23.20;70.20
66708;DHT22;53622;0.000;0.000;2022-10-16T13:05:37;23.30;69.00
66708;DHT22;53622;0.000;0.000;2022-10-16T13:08:30;23.30;69.70
66708;DHT22;53622;0.000;0.000;2022-10-16T13:11:08;23.30;70.10
66708;DHT22;53622;0.000;0.000;2022-10-16T13:16:42;23.40;70.50
66708;DHT22;53622;0.000;0.000;2022-10-16T13:19:21;23.40;70.70
66708;DHT22;53622;0.000;0.000;2022-10-16T13:21:59;23.40;70.50
66708;DHT22;53622;0.000;0.000;2022-10-16T13:24:50;23.40;70.20
66708;DHT22;53622;0.000;0.000;2022-10-16T13:27:29;23.40;69.80
66708;DHT22;53622;0.000;0.000;2022-10-16T13:30:12;23.40;70.00
66708;DHT22;53622;0.000;0.000;2022-10-16T13:32:46;23.40;70.40
66708;DHT22;53622;0.000;0.000;2022-10-16T13:35:22;23.40;70.30
66708;DHT22;53622;0.000;0.000;2022-10-16T13:38:02;23.40;70.40
66708;DHT22;53622;0.000;0.000;2022-10-16T13:40:32;23.40;70.40
66708;DHT22;53622;0.000;0.000;2022-10-16T13:43:02;23.50;70.00
66708;DHT22;53622;0.000;0.000;2022-10-16T13:45:33;23.50;70.30
66708;DHT22;53622;0.000;0.000;2022-10-16T13:48:09;23.40;70.30
66708;DHT22;53622;0.000;0.000;2022-10-16T13:50:40;23.40;70.20
66708;DHT22;53622;0.000;0.000;2022-10-16T13:53:14;23.40;70.50
66708;DHT22;53622;0.000;0.000;2022-10-16T13:55:44;23.50;70.30
66708;DHT22;53622;0.000;0.000;2022-10-16T13:58:17;23.50;70.50
66708;DHT22;53622;0.000;0.000;2022-10-16T14:00:58;23.50;70.40
66708;DHT22;53622;0.000;0.000;2022-10-16T14:03:30;23.50;70.60
66708;DHT22;53622;0.000;0.000;2022-10-16T14:06:02;23.50;70.90
66708;DHT22;53622;0.000;0.000;2022-10-16T14:08:33;23.50;70.80
66708;DHT22;53622;0.000;0.000;2022-10-16T14:11:02;23.50;70.60
66708;DHT22;53622;0.000;0.000;2022-10-16T14:13:36;23.50;70.80
66708;DHT22;53622;0.000;0.000;2022-10-16T14:16:10;23.50;70.50
66708;DHT22;53622;0.000;0.000;2022-10-16T14:18:41;23.40;70.90
66708;DHT22;53622;0.000;0.000;2022-10-16T14:21:13;23.50;70.90
66708;DHT22;53622;0.000;0.000;2022-10-16T14:23:44;23.50;70.90
66708;DHT22;53622;0.000;0.000;2022-10-16T14:26:18;23.50;70.70
66708;DHT22;53622;0.000;0.000;2022-10-16T14:28:48;23.50;70.70
66708;DHT22;53622;0.000;0.000;2022-10-16T14:31:27;23.50;70.80
66708;DHT22;53622;0.000;0.000;2022-10-16T14:33:59;23.50;70.80
66708;DHT22;53622;0.000;0.000;2022-10-16T14:36:29;23.50;71.20
66708;DHT22;53622;0.000;0.000;2022-10-16T14:39:04;23.50;71.00
66708;DHT22;53622;0.000;0.000;2022-10-16T14:41:43;23.50;72.10
66708;DHT22;53622;0.000;0.000;2022-10-16T14:44:14;23.50;71.20
66708;DHT22;53622;0.000;0.000;2022-10-16T14:46:46;23.50;71.00
66708;DHT22;53622;0.000;0.000;2022-10-16T14:49:18;23.50;70.80
66708;DHT22;53622;0.000;0.000;2022-10-16T14:51:49;23.50;71.20
66708;DHT22;53622;0.000;0.000;2022-10-16T14:54:20;23.50;71.20
66708;DHT22;53622;0.000;0.000;2022-10-16T14:56:51;23.50;71.10
66708;DHT22;53622;0.000;0.000;2022-10-16T14:59:31;23.50;71.30
66708;DHT22;53622;0.000;0.000;2022-10-16T15:02:09;23.50;71.40
66708;DHT22;53622;0.000;0.000;2022-10-16T15:04:47;23.50;72.30
66708;DHT22;53622;0.000;0.000;2022-10-16T15:07:17;23.50;71.80
66708;DHT22;53622;0.000;0.000;2022-10-16T15:09:48;23.50;72.00
66708;DHT22;53622;0.000;0.000;2022-10-16T15:12:18;23.50;71.60
66708;DHT22;53622;0.000;0.000;2022-10-16T15:14:48;23.50;72.10
66708;DHT22;53622;0.000;0.000;2022-10-16T15:17:17;23.50;71.70
66708;DHT22;53622;0.000;0.000;2022-10-16T15:19:50;23.50;71.70
66708;DHT22;53622;0.000;0.000;2022-10-16T15:22:19;23.50;71.80
66708;DHT22;53622;0.000;0.000;2022-10-16T15:24:51;23.50;71.60
66708;DHT22;53622;0.000;0.000;2022-10-16T15:27:20;23.50;71.70
66708;DHT22;53622;0.000;0.000;2022-10-16T15:29:50;23.50;72.00
66708;DHT22;53622;0.000;0.000;2022-10-16T15:32:19;23.50;72.00
66708;DHT22;53622;0.000;0.000;2022-10-16T15:34:50;23.50;72.20
66708;DHT22;53622;0.000;0.000;2022-10-16T15:37:20;23.50;72.30
66708;DHT22;53622;0.000;0.000;2022-10-16T15:39:50;23.50;72.40
66708;DHT22;53622;0.000;0.000;2022-10-16T15:42:19;23.50;72.50
66708;DHT22;53622;0.000;0.000;2022-10-16T15:44:50;23.50;72.60
66708;DHT22;53622;0.000;0.000;2022-10-16T15:47:19;23.50;72.60
66708;DHT22;53622;0.000;0.000;2022-10-16T15:49:50;23.50;72.70
66708;DHT22;53622;0.000;0.000;2022-10-16T15:52:20;23.50;72.70
66708;DHT22;53622;0.000;0.000;2022-10-16T15:54:49;23.50;72.80
66708;DHT22;53622;0.000;0.000;2022-10-16T15:57:21;23.50;72.80
66708;DHT22;53622;0.000;0.000;2022-10-16T15:59:51;23.50;72.90
66708;DHT22;53622;0.000;0.000;2022-10-16T16:02:25;23.50;72.90
66708;DHT22;53622;0.000;0.000;2022-10-16T16:04:57;23.50;73.00
66708;DHT22;53622;0.000;0.000;2022-10-16T16:07:26;23.50;72.90
66708;DHT22;53622;0.000;0.000;2022-10-16T16:09:56;23.50;73.00
66708;DHT22;53622;0.000;0.000;2022-10-16T16:12:25;23.50;73.30
66708;DHT22;53622;0.000;0.000;2022-10-16T16:14:55;23.50;73.30
66708;DHT22;53622;0.000;0.000;2022-10-16T16:17:30;23.50;73.60
66708;DHT22;53622;0.000;0.000;2022-10-16T16:20:02;23.50;73.40
66708;DHT22;53622;0.000;0.000;2022-10-16T16:22:32;23.50;73.50
66708;DHT22;53622;0.000;0.000;2022-10-16T16:25:01;23.60;73.60
66708;DHT22;53622;0.000;0.000;2022-10-16T16:27:30;23.50;73.60
66708;DHT22;53622;0.000;0.000;2022-10-16T16:30:01;23.50;73.60
66708;DHT22;53622;0.000;0.000;2022-10-16T16:32:31;23.60;73.60
66708;DHT22;53622;0.000;0.000;2022-10-16T16:35:03;23.50;74.00